Terminal Aerodrome Forecast
Issued by NWS

Home | Current Version | Previous Version | Graphics & Text | Print | Product List | Glossary On
Versions: 1 2 3 4 5 6 7 8 9 10 11 12 13 14 15
000
FTUS45 KGGW 211100
TAFSDY
TAF
KSDY 211132Z 2112/2212 18007KT P6SM VCFG SCT001 SCT150
      WS010/27033KT
     FM211700 25014KT P6SM SCT200
     FM220100 24007KT P6SM SCT006
      AMD LTD TO CLD VIS AND WIND=

USA.gov is the U.S. government's official web portal to all federal, state and local government web resources and services.